Prue, Oklahoma
Current Conditions -  °F | °C
As of 4:55 PM on Thursday 20 Nov 2014 (Local Time) from KOWP Reporting Station
Clear Clear  
Wind Chill: 57°   Ceiling: Unl
Heat Index: 57°   Visibility: 10mi
Dew Point: 33°   Wind: 3mph
Humidity: 40%   Direction: 100°E
Pressure: 30.06"   Gusts: NA
Location:  36.24°N, 96.32°W
Report Text: KOWP 202255Z AUTO 10003KT 10SM CLR 14/01 A3006 RMK AO2 T01410008
Loading
Personal Weather Stations






























Interactive Weather Map New forecast layout! Learn more

10-Day Weather Forecast

Advertisements
Track Severe Weather on mobile